• Join FlightAware (Why Join?)
  • Login
  • US Flag 
08:42PM EDT


 

Airport Tracker/Info


-or-


 

Live Flight TrackerFlight Track Log ✈ N100PM ✈ 06-Nov-2013 ✈ KAPF - KOCF

Flight Track Log - Related Links

Times and Time Zones

All times are in EST time to prevent confusion due to time zone crossing. See the N100PM flight status page for this flight to view local times or setup timezone preferences in your user account.

Time Position Orientation Groundspeed Altitude Reporting Facility
EST Latitude Longitude Course Direction KTS MPH feet Rate Location/Type
09:48AM 26.3037 -81.7975 354° North  Level Estimated
09:49AM 26.3291 -81.7997 356° North  Level FlightAware Approximate
09:50AM 26.3544 -81.8019 356° North  Level FlightAware Approximate
09:51AM 26.3797 -81.8041 356° North  Level FlightAware Approximate
09:52AM 26.4051 -81.8063 356° North  Level FlightAware Approximate
09:53AM 26.4305 -81.8085 356° North  Level FlightAware Approximate
09:54AM 26.4558 -81.8107 356° North  Level FlightAware Approximate
09:55AM 26.4811 -81.8129 356° North  Level FlightAware Approximate
09:56AM 26.5065 -81.8150 356° North  Level FlightAware Approximate
09:57AM 26.5319 -81.8172 356° North  Level FlightAware Approximate
09:58AM 26.5572 -81.8194 356° North  Level FlightAware Approximate
09:59AM 26.5826 -81.8216 356° North  Level FlightAware Approximate
10:00AM 26.6079 -81.8238 356° North  Level FlightAware Approximate
10:01AM 26.6332 -81.8260 356° North  Level FlightAware Approximate
10:02AM 26.6586 -81.8282 356° North  Level FlightAware Approximate
10:03AM 26.6840 -81.8304 356° North  Level FlightAware Approximate
10:04AM 26.7093 -81.8326 356° North  Level FlightAware Approximate
10:04AM 26.5881 -81.8508 356° North 95 109 6,000  Level Miami Center
10:05AM 26.7346 -81.8348 356° North  Level FlightAware Approximate
10:05AM 26.6150 -81.8542 354° North 95 109 6,000  Level Miami Center
10:06AM 26.7600 -81.8370 356° North  Level FlightAware Approximate
10:06AM 26.6422 -81.8556 357° North 100 115 6,000  Level Miami Center
10:07AM 26.7854 -81.8392 356° North  Level FlightAware Approximate
10:07AM 26.6711 -81.8614 350° North 100 115 6,000  Level Miami Center
10:08AM 26.8107 -81.8414 356° North  Level FlightAware Approximate
10:08AM 26.7003 -81.8650 354° North 105 121 6,000  Level Miami Center
10:09AM 26.8361 -81.8436 356° North  Level FlightAware Approximate
10:09AM 26.7336 -81.8664 358° North 105 121 6,000  Level Miami Center
10:10AM 26.7608 -81.8675 358° North 105 121 6,000  Level Miami Center
10:11AM 26.7919 -81.8711 354° North 105 121 6,000  Level Miami Center
10:12AM 26.8211 -81.8700 North 105 121 6,000  Level Miami Center
10:13AM 26.8506 -81.8714 358° North 105 121 6,000  Level Miami Center
10:14AM 26.8797 -81.8725 358° North 113 130 6,000  Level Miami Center
10:15AM 26.9089 -81.8739 358° North 113 130 6,000  Level Miami Center
10:16AM 26.9378 -81.8775 354° North 102 117 6,000  Level Miami Center
10:17AM 26.9669 -81.8811 354° North 102 117 6,000  Level Miami Center
10:18AM 26.9961 -81.8844 354° North 102 117 6,000  Level Miami Center
10:19AM 27.0231 -81.8881 353° North 102 117 6,000  Level Miami Center
10:20AM 27.0500 -81.8917 353° North 102 117 6,000  Level Miami Center
10:21AM 27.0792 -81.8953 354° North 102 117 6,000  Level Miami Center
10:22AM 27.1083 -81.8964 358° North 102 117 6,000  Level Miami Center
10:23AM 27.1375 -81.9025 349° North 102 117 6,000  Level Miami Center
10:24AM 27.1664 -81.9058 354° North 102 117 6,000  Level Miami Center
10:25AM 27.1914 -81.9094 353° North 102 117 6,000  Level Miami Center
10:26AM 27.2225 -81.9131 354° North 102 117 6,000  Level Miami Center
10:27AM 27.2517 -81.9167 354° North 102 117 6,000  Level Miami Center
10:28AM 27.2786 -81.9203 353° North 102 117 6,100  Climbing Miami Center
10:29AM 27.3078 -81.9239 354° North 102 117 6,100  Level Miami Center
10:30AM 27.3347 -81.9272 354° North 102 117 6,100  Level Miami Center
10:31AM 27.3639 -81.9286 358° North 102 117 6,100  Level Miami Center
10:32AM 27.3911 -81.9322 353° North 102 117 6,100  Level Miami Center
10:33AM 27.4181 -81.9356 354° North 102 117 6,100  Level Miami Center
10:34AM 27.4450 -81.9392 353° North 102 117 6,100  Level Miami Center
10:35AM 27.4742 -81.9428 354° North 102 117 6,100  Level Miami Center
10:36AM 27.5011 -81.9464 353° North 102 117 6,100  Level Miami Center
10:37AM 27.5281 -81.9500 353° North 102 117 6,100  Level Miami Center
10:38AM 27.5594 -81.9489 North 102 117 6,100  Level Miami Center
10:39AM 27.5886 -81.9525 354° North 102 117 6,100  Level Miami Center
10:40AM 27.6136 -81.9536 358° North 102 117 6,100  Level Miami Center
10:41AM 27.6428 -81.9550 358° North 101 116 6,100  Level Miami Center
10:42AM 27.6717 -81.9586 354° North 101 116 6,100  Level Miami Center
10:43AM 27.7008 -81.9622 354° North 101 116 6,100  Level Miami Center
10:44AM 27.7258 -81.9633 358° North 101 116 6,100  Level Miami Center
10:45AM 27.7550 -81.9647 358° North 101 116 6,100  Level Miami Center
10:46AM 27.7861 -81.9708 350° North 101 116 6,100  Level Miami Center
10:47AM 27.8172 -81.9792 347° North 101 116 6,100  Level Miami Center
10:48AM 27.8461 -81.9853 349° North 101 116 6,100  Level Miami Center
10:49AM 27.8731 -81.9936 345° North 101 116 6,100  Level Miami Center
10:50AM 27.9000 -82.0000 348° North 106 122 6,100  Level Tampa TRACON
10:51AM 27.9333 -82.0000 360° North 107 123 6,100  Level Tampa TRACON
10:52AM 27.9500 -82.0167 319° Northwest 107 123 6,100  Level Tampa TRACON
10:53AM 27.9833 -82.0167 360° North 105 121 6,100  Level Tampa TRACON
10:54AM 28.0167 -82.0333 336° Northwest 104 120 6,100  Level Tampa TRACON
10:55AM 28.0500 -82.0333 360° North 106 122 6,100  Level Tampa TRACON
10:56AM 28.0667 -82.0333 360° North 105 121 6,100  Level Tampa TRACON
10:57AM 28.1000 -82.0500 336° Northwest 110 127 6,100  Level Tampa TRACON
10:58AM 28.1333 -82.0500 360° North 107 123 6,100  Level Tampa TRACON
10:59AM 28.1667 -82.0500 360° North 107 123 6,100  Level Tampa TRACON
11:00AM 28.2000 -82.0667 336° Northwest 108 124 6,100  Level Tampa TRACON
11:01AM 28.2167 -82.0667 360° North 109 125 6,100  Level Tampa TRACON
11:02AM 28.2500 -82.0833 336° Northwest 110 127 6,100  Level Tampa TRACON
11:03AM 28.2833 -82.0833 360° North 107 123 6,100  Level Tampa TRACON
11:04AM 28.3167 -82.0833 360° North 110 127 6,100  Level Tampa TRACON
11:05AM 28.3500 -82.1000 336° Northwest 107 123 6,100  Level Tampa TRACON
11:06AM 28.3667 -82.1000 360° North 107 123 6,100  Level Tampa TRACON
11:07AM 28.4000 -82.1000 360° North 106 122 6,100  Level Tampa TRACON
11:08AM 28.4333 -82.1000 360° North 108 124 6,100  Level Tampa TRACON
11:09AM 28.4500 -82.1167 319° Northwest 109 125 6,100  Level Tampa TRACON
11:10AM 28.4753 -82.1181 357° North 110 127 6,100  Level Jacksonville Center
11:11AM 28.5003 -82.1178 North 113 130 6,100 -60 Level Jacksonville Center
11:12AM 28.5294 -82.1222 352° North 114 131 6,000 -60 Descending Jacksonville Center
11:13AM 28.5608 -82.1292 349° North 113 130 6,000  Level Jacksonville Center
11:14AM 28.5964 -82.1358 351° North 111 128 6,000  Level Jacksonville Center
11:15AM 28.6278 -82.1381 356° North 110 127 6,000  Level Jacksonville Center
11:16AM 28.6569 -82.1425 352° North 110 127 6,000 -180 Level Jacksonville Center
11:17AM 28.6883 -82.1447 356° North 111 128 5,700 -420 Descending Jacksonville Center
11:18AM 28.7197 -82.1564 342° North 102 117 5,200 -540 Descending Jacksonville Center
11:19AM 28.7425 -82.1608 350° North 96 110 4,700 -480 Descending Jacksonville Center
11:20AM 28.7678 -82.1656 351° North 94 108 4,300 -480 Descending Jacksonville Center
11:21AM 28.7969 -82.1722 349° North 108 124 3,800 -540 Descending Jacksonville Center
11:22AM 28.8325 -82.1792 350° North 124 143 3,300 -660 Descending Jacksonville Center
11:23AM 28.8639 -82.1836 353° North 122 140 2,500 -720 Descending Jacksonville Center
11:24AM 28.8950 -82.1906 349° North 121 139 2,000 -300 Descending Jacksonville Center
11:25AM 28.9222 -82.1953 351° North 97 112 2,000  Level Jacksonville Center
11:26AM 28.9494 -82.1972 356° North 93 107 2,000  Level Jacksonville Center
11:27AM 28.9828 -82.1994 357° North 110 127 2,000  Level Jacksonville Center
11:28AM 29.0122 -82.2039 352° North 110 127 2,000  Level Jacksonville Center
11:29AM 29.0433 -82.2133 345° North 109 125 2,000 -120 Level Jacksonville Center
11:30AM 29.0686 -82.2275 334° Northwest 107 123 1,800 -300 Descending Jacksonville Center
11:31AM 29.0958 -82.2272 North 97 112 1,400 -540 Descending Jacksonville Center
11:32AM 29.1269 -82.2269 360° North 93 107 800 -600 Descending Jacksonville Center